Alexandria, AL

1:01 PM CDT on September 23, 2014 (GMT -0500)
Weaver, AL | Change Station
CLOSE
Current Station
Personal Weather Station
Location: Weaver, AL
Elevation: 760 ft
Nearby Weather Stations

Elev 760 ft 33.75 °N, 85.84 °W | Updated 3 seconds ago

Clear
Clear
77.0 °F
Feels Like 78 °F
N
14.5
Wind Variable Wind from East
Gusts 14.5 mph

Today
High -- | Low -- °F
--% Chance of Precip.
Yesterday
High -- | Low -- °F
Precip. -- in
6:32 AM 6:38 PM
Waning Crescent, 0% visible
Pressure 30.17 in
Visibility 10.0 miles
Clouds Clear
Heat Index 78 °F
Dew Point 52 °F
Humidity 42%
Rainfall 0.00 in
Snow Depth Not available.
UV 9 out of 12
Pollen 7.10 out of 12
Ozone Good
PM2.5 Good
Flu Activity Not available.
METAR KANB 231753Z AUTO VRB06KT 10SM CLR 26/12 A3018 RMK AO2 SLP215 T02610122 10261 20133 58010

More Conditions Fewer Conditions

Pressure 30.17 in
Visibility 10.0 miles
Clouds Clear
Heat Index 78 °F
Dew Point 52 °F
Humidity 42%
Rainfall 0.00 in
Snow Depth Not available.
UV 9 out of 12
Pollen 7.10 out of 12
Ozone Good
PM2.5 Good
Flu Activity Not available.
METAR KANB 231753Z AUTO VRB06KT 10SM CLR 26/12 A3018 RMK AO2 SLP215 T02610122 10261 20133 58010

More Conditions Fewer Conditions

10-Day Weather Forecast

Almanac

Astronomy

Sep. 23, 2014 Rise Set
Actual Time 6:32 AM CDT 6:38 PM CDT
Civil Twilight 6:07 AM CDT 7:03 PM CDT
Nautical Twilight 5:38 AM CDT 7:32 PM CDT
Astronomical Twilight 5:09 AM CDT 8:02 PM CDT
Moon 5:56 AM CDT 6:18 PM CDT
Length of Visible Light 12h 56m
Length of Day
12h 06m
Tomorrow will be 2m 5s shorter.
Waning Crescent, 0% of the Moon is Illuminated
Today
Waning Crescent
Sep 24
New
Oct 1
First Quarter
Oct 8
Full
Oct 15
Last Quarter

Today's Extremes

State Highs State Lows

Community

WunderPhotos

Upload Photos

1,755,763 photos uploaded!

WunderBlogs® & News

Nearby

Air Quality

  Air Quality AQ Index Pollutant
Yesterday Good
PM10
Yesterday Good
OZONE
Current Good
PM2.5
Current Good
OZONE
Tuesday Good
OZONE
Tuesday Good
PM2.5

Snow Depth

Station Depth Elevation
No new snow has been reported.

Earthquake Activity

City Distance Mag. Time & Date
Sweetwater, Tennessee 153 miles 2.5 2:54 PM CDT
2014-09-20
Minimum magnitude displayed is 2.5.

Coastal Water Temperatures

Place Temperature
No Stations Reporting

Nearby Weather Stations